sensor_id;sensor_type;location;lat;lon;timestamp;P1;durP1;ratioP1;P2;durP2;ratioP2
65936;SDS011;52707;52.086;5.418;2023-04-07T00:01:44;15.82;;;6.57;;
65936;SDS011;52707;52.086;5.418;2023-04-07T00:04:11;15.68;;;7.97;;
65936;SDS011;52707;52.086;5.418;2023-04-07T00:06:37;17.63;;;7.40;;
65936;SDS011;52707;52.086;5.418;2023-04-07T00:09:05;16.60;;;7.28;;
65936;SDS011;52707;52.086;5.418;2023-04-07T00:11:32;13.65;;;5.72;;
65936;SDS011;52707;52.086;5.418;2023-04-07T00:13:58;15.18;;;6.25;;
65936;SDS011;52707;52.086;5.418;2023-04-07T00:16:24;14.50;;;6.47;;
65936;SDS011;52707;52.086;5.418;2023-04-07T00:18:51;18.35;;;6.32;;
65936;SDS011;52707;52.086;5.418;2023-04-07T00:21:17;25.13;;;6.93;;
65936;SDS011;52707;52.086;5.418;2023-04-07T00:23:43;11.52;;;6.03;;
65936;SDS011;52707;52.086;5.418;2023-04-07T00:26:10;12.10;;;6.75;;
65936;SDS011;52707;52.086;5.418;2023-04-07T00:28:36;13.52;;;6.95;;
65936;SDS011;52707;52.086;5.418;2023-04-07T00:31:02;14.52;;;7.28;;
65936;SDS011;52707;52.086;5.418;2023-04-07T00:33:29;14.70;;;7.30;;
65936;SDS011;52707;52.086;5.418;2023-04-07T00:35:55;15.32;;;7.60;;
65936;SDS011;52707;52.086;5.418;2023-04-07T00:38:23;14.50;;;7.75;;
65936;SDS011;52707;52.086;5.418;2023-04-07T00:40:55;16.27;;;7.47;;
65936;SDS011;52707;52.086;5.418;2023-04-07T00:43:22;17.52;;;8.05;;
65936;SDS011;52707;52.086;5.418;2023-04-07T00:45:48;16.25;;;8.52;;
65936;SDS011;52707;52.086;5.418;2023-04-07T00:48:14;16.50;;;8.63;;
65936;SDS011;52707;52.086;5.418;2023-04-07T00:50:41;19.50;;;9.50;;
65936;SDS011;52707;52.086;5.418;2023-04-07T00:53:07;17.13;;;9.90;;
65936;SDS011;52707;52.086;5.418;2023-04-07T00:55:34;16.00;;;9.23;;
65936;SDS011;52707;52.086;5.418;2023-04-07T00:58:00;16.20;;;9.45;;
65936;SDS011;52707;52.086;5.418;2023-04-07T01:00:26;20.38;;;8.95;;
65936;SDS011;52707;52.086;5.418;2023-04-07T01:03:04;12.52;;;8.05;;
65936;SDS011;52707;52.086;5.418;2023-04-07T01:05:40;14.40;;;8.73;;
65936;SDS011;52707;52.086;5.418;2023-04-07T01:08:12;18.58;;;8.73;;
65936;SDS011;52707;52.086;5.418;2023-04-07T01:10:51;17.45;;;8.63;;
65936;SDS011;52707;52.086;5.418;2023-04-07T01:13:30;19.63;;;8.35;;
65936;SDS011;52707;52.086;5.418;2023-04-07T01:15:57;19.42;;;8.35;;
65936;SDS011;52707;52.086;5.418;2023-04-07T01:18:30;18.30;;;8.48;;
65936;SDS011;52707;52.086;5.418;2023-04-07T01:21:05;15.77;;;8.38;;
65936;SDS011;52707;52.086;5.418;2023-04-07T01:26:27;20.35;;;9.40;;
65936;SDS011;52707;52.086;5.418;2023-04-07T01:31:28;18.52;;;9.07;;
65936;SDS011;52707;52.086;5.418;2023-04-07T01:33:56;18.90;;;9.27;;
65936;SDS011;52707;52.086;5.418;2023-04-07T01:36:24;21.35;;;9.20;;
65936;SDS011;52707;52.086;5.418;2023-04-07T01:38:53;15.98;;;8.90;;
65936;SDS011;52707;52.086;5.418;2023-04-07T01:41:20;16.73;;;9.27;;
65936;SDS011;52707;52.086;5.418;2023-04-07T01:43:47;19.60;;;9.35;;
65936;SDS011;52707;52.086;5.418;2023-04-07T01:46:14;16.90;;;9.63;;
65936;SDS011;52707;52.086;5.418;2023-04-07T01:48:40;15.48;;;9.68;;
65936;SDS011;52707;52.086;5.418;2023-04-07T01:51:07;16.92;;;9.05;;
65936;SDS011;52707;52.086;5.418;2023-04-07T01:53:37;24.17;;;9.98;;
65936;SDS011;52707;52.086;5.418;2023-04-07T01:56:04;21.60;;;10.80;;
65936;SDS011;52707;52.086;5.418;2023-04-07T01:58:30;30.98;;;12.63;;
65936;SDS011;52707;52.086;5.418;2023-04-07T02:00:57;23.88;;;13.50;;
65936;SDS011;52707;52.086;5.418;2023-04-07T02:03:27;27.90;;;12.95;;
65936;SDS011;52707;52.086;5.418;2023-04-07T02:05:55;28.33;;;13.88;;
65936;SDS011;52707;52.086;5.418;2023-04-07T02:08:23;29.15;;;12.85;;
65936;SDS011;52707;52.086;5.418;2023-04-07T02:10:50;25.20;;;12.65;;
65936;SDS011;52707;52.086;5.418;2023-04-07T02:13:18;24.65;;;12.43;;
65936;SDS011;52707;52.086;5.418;2023-04-07T02:15:45;26.50;;;12.50;;
65936;SDS011;52707;52.086;5.418;2023-04-07T02:18:12;26.23;;;12.25;;
65936;SDS011;52707;52.086;5.418;2023-04-07T02:20:39;20.52;;;11.50;;
65936;SDS011;52707;52.086;5.418;2023-04-07T02:23:07;21.23;;;10.93;;
65936;SDS011;52707;52.086;5.418;2023-04-07T02:25:33;30.45;;;11.13;;
65936;SDS011;52707;52.086;5.418;2023-04-07T02:28:03;27.02;;;10.43;;
65936;SDS011;52707;52.086;5.418;2023-04-07T02:30:29;28.45;;;10.93;;
65936;SDS011;52707;52.086;5.418;2023-04-07T02:32:56;27.42;;;10.65;;
65936;SDS011;52707;52.086;5.418;2023-04-07T02:35:22;23.80;;;10.52;;
65936;SDS011;52707;52.086;5.418;2023-04-07T02:37:49;29.33;;;10.70;;
65936;SDS011;52707;52.086;5.418;2023-04-07T02:40:15;24.48;;;11.38;;
65936;SDS011;52707;52.086;5.418;2023-04-07T02:42:42;25.00;;;10.98;;
65936;SDS011;52707;52.086;5.418;2023-04-07T02:45:08;28.73;;;10.73;;
65936;SDS011;52707;52.086;5.418;2023-04-07T02:47:35;26.98;;;10.40;;
65936;SDS011;52707;52.086;5.418;2023-04-07T02:50:01;20.60;;;9.90;;
65936;SDS011;52707;52.086;5.418;2023-04-07T02:52:28;37.78;;;10.27;;
65936;SDS011;52707;52.086;5.418;2023-04-07T02:54:54;26.75;;;10.57;;
65936;SDS011;52707;52.086;5.418;2023-04-07T02:57:21;24.85;;;10.18;;
65936;SDS011;52707;52.086;5.418;2023-04-07T02:59:47;29.77;;;11.07;;
65936;SDS011;52707;52.086;5.418;2023-04-07T03:02:13;27.00;;;10.57;;
65936;SDS011;52707;52.086;5.418;2023-04-07T03:04:40;36.47;;;10.75;;
65936;SDS011;52707;52.086;5.418;2023-04-07T03:07:07;33.50;;;10.25;;
65936;SDS011;52707;52.086;5.418;2023-04-07T03:09:33;37.15;;;10.68;;
65936;SDS011;52707;52.086;5.418;2023-04-07T03:12:00;27.17;;;10.30;;
65936;SDS011;52707;52.086;5.418;2023-04-07T03:14:27;42.40;;;11.43;;
65936;SDS011;52707;52.086;5.418;2023-04-07T03:16:53;27.10;;;11.35;;
65936;SDS011;52707;52.086;5.418;2023-04-07T03:19:20;27.70;;;9.25;;
65936;SDS011;52707;52.086;5.418;2023-04-07T03:21:46;27.45;;;9.48;;
65936;SDS011;52707;52.086;5.418;2023-04-07T03:24:13;33.47;;;10.70;;
65936;SDS011;52707;52.086;5.418;2023-04-07T03:26:39;32.08;;;10.30;;
65936;SDS011;52707;52.086;5.418;2023-04-07T03:29:05;32.35;;;9.68;;
65936;SDS011;52707;52.086;5.418;2023-04-07T03:31:32;27.20;;;9.00;;
65936;SDS011;52707;52.086;5.418;2023-04-07T03:33:58;34.38;;;9.15;;
65936;SDS011;52707;52.086;5.418;2023-04-07T03:36:24;25.38;;;8.05;;
65936;SDS011;52707;52.086;5.418;2023-04-07T03:38:53;21.60;;;8.43;;
65936;SDS011;52707;52.086;5.418;2023-04-07T03:41:19;32.20;;;7.95;;
65936;SDS011;52707;52.086;5.418;2023-04-07T03:43:46;25.63;;;7.95;;
65936;SDS011;52707;52.086;5.418;2023-04-07T03:46:12;31.13;;;9.30;;
65936;SDS011;52707;52.086;5.418;2023-04-07T03:48:39;23.35;;;7.47;;
65936;SDS011;52707;52.086;5.418;2023-04-07T03:51:06;32.50;;;8.30;;
65936;SDS011;52707;52.086;5.418;2023-04-07T03:53:32;28.83;;;8.20;;
65936;SDS011;52707;52.086;5.418;2023-04-07T03:55:58;30.27;;;8.35;;
65936;SDS011;52707;52.086;5.418;2023-04-07T03:58:26;31.52;;;7.72;;
65936;SDS011;52707;52.086;5.418;2023-04-07T04:00:52;28.63;;;7.85;;
65936;SDS011;52707;52.086;5.418;2023-04-07T04:03:18;29.27;;;7.85;;
65936;SDS011;52707;52.086;5.418;2023-04-07T04:05:45;25.83;;;8.65;;
65936;SDS011;52707;52.086;5.418;2023-04-07T04:08:11;24.58;;;7.95;;
65936;SDS011;52707;52.086;5.418;2023-04-07T04:10:37;25.77;;;8.48;;
65936;SDS011;52707;52.086;5.418;2023-04-07T04:13:04;32.42;;;8.35;;
65936;SDS011;52707;52.086;5.418;2023-04-07T04:15:33;25.38;;;8.07;;
65936;SDS011;52707;52.086;5.418;2023-04-07T04:17:59;21.10;;;7.55;;
65936;SDS011;52707;52.086;5.418;2023-04-07T04:20:26;26.30;;;8.85;;
65936;SDS011;52707;52.086;5.418;2023-04-07T04:22:52;24.70;;;8.25;;
65936;SDS011;52707;52.086;5.418;2023-04-07T04:25:18;31.35;;;9.07;;
65936;SDS011;52707;52.086;5.418;2023-04-07T04:27:45;24.58;;;8.25;;
65936;SDS011;52707;52.086;5.418;2023-04-07T04:30:11;24.77;;;8.40;;
65936;SDS011;52707;52.086;5.418;2023-04-07T04:32:37;44.05;;;11.00;;
65936;SDS011;52707;52.086;5.418;2023-04-07T04:35:04;26.95;;;8.23;;
65936;SDS011;52707;52.086;5.418;2023-04-07T04:37:31;26.15;;;8.38;;
65936;SDS011;52707;52.086;5.418;2023-04-07T04:39:57;30.02;;;9.05;;
65936;SDS011;52707;52.086;5.418;2023-04-07T04:42:24;31.52;;;10.00;;
65936;SDS011;52707;52.086;5.418;2023-04-07T04:44:52;33.13;;;10.10;;
65936;SDS011;52707;52.086;5.418;2023-04-07T04:47:18;23.88;;;9.30;;
65936;SDS011;52707;52.086;5.418;2023-04-07T04:49:44;30.30;;;9.05;;
65936;SDS011;52707;52.086;5.418;2023-04-07T04:52:11;21.95;;;9.10;;
65936;SDS011;52707;52.086;5.418;2023-04-07T04:54:37;24.10;;;8.93;;
65936;SDS011;52707;52.086;5.418;2023-04-07T04:57:03;23.17;;;9.30;;
65936;SDS011;52707;52.086;5.418;2023-04-07T04:59:29;32.33;;;9.85;;
65936;SDS011;52707;52.086;5.418;2023-04-07T05:01:56;22.13;;;9.15;;
65936;SDS011;52707;52.086;5.418;2023-04-07T05:04:22;30.65;;;9.63;;
65936;SDS011;52707;52.086;5.418;2023-04-07T05:06:49;23.80;;;8.27;;
65936;SDS011;52707;52.086;5.418;2023-04-07T05:09:16;28.23;;;8.45;;
65936;SDS011;52707;52.086;5.418;2023-04-07T05:11:42;23.27;;;8.02;;
65936;SDS011;52707;52.086;5.418;2023-04-07T05:14:08;22.23;;;7.65;;
65936;SDS011;52707;52.086;5.418;2023-04-07T05:16:35;21.20;;;7.53;;
65936;SDS011;52707;52.086;5.418;2023-04-07T05:19:01;21.90;;;7.50;;
65936;SDS011;52707;52.086;5.418;2023-04-07T05:21:28;18.38;;;7.40;;
65936;SDS011;52707;52.086;5.418;2023-04-07T05:23:54;17.38;;;6.07;;
65936;SDS011;52707;52.086;5.418;2023-04-07T05:26:20;16.98;;;6.40;;
65936;SDS011;52707;52.086;5.418;2023-04-07T05:28:47;14.50;;;6.40;;
65936;SDS011;52707;52.086;5.418;2023-04-07T05:31:13;17.13;;;6.68;;
65936;SDS011;52707;52.086;5.418;2023-04-07T05:33:40;15.13;;;6.63;;
65936;SDS011;52707;52.086;5.418;2023-04-07T05:36:06;15.07;;;6.47;;
65936;SDS011;52707;52.086;5.418;2023-04-07T05:38:32;15.70;;;7.15;;
65936;SDS011;52707;52.086;5.418;2023-04-07T05:40:59;18.17;;;7.68;;
65936;SDS011;52707;52.086;5.418;2023-04-07T05:43:25;24.52;;;7.93;;
65936;SDS011;52707;52.086;5.418;2023-04-07T05:45:51;17.23;;;7.32;;
65936;SDS011;52707;52.086;5.418;2023-04-07T05:48:18;13.68;;;6.78;;
65936;SDS011;52707;52.086;5.418;2023-04-07T05:50:44;16.00;;;6.38;;
65936;SDS011;52707;52.086;5.418;2023-04-07T05:53:10;19.95;;;6.90;;
65936;SDS011;52707;52.086;5.418;2023-04-07T05:55:37;17.25;;;6.32;;
65936;SDS011;52707;52.086;5.418;2023-04-07T05:58:03;22.77;;;6.95;;
65936;SDS011;52707;52.086;5.418;2023-04-07T06:00:30;21.30;;;6.88;;
65936;SDS011;52707;52.086;5.418;2023-04-07T06:02:56;17.77;;;6.63;;
65936;SDS011;52707;52.086;5.418;2023-04-07T06:05:23;22.52;;;6.47;;
65936;SDS011;52707;52.086;5.418;2023-04-07T06:07:49;22.58;;;7.50;;
65936;SDS011;52707;52.086;5.418;2023-04-07T06:10:16;18.13;;;6.47;;
65936;SDS011;52707;52.086;5.418;2023-04-07T06:12:42;23.00;;;6.57;;
65936;SDS011;52707;52.086;5.418;2023-04-07T06:15:08;20.65;;;6.25;;
65936;SDS011;52707;52.086;5.418;2023-04-07T06:17:35;26.23;;;7.35;;
65936;SDS011;52707;52.086;5.418;2023-04-07T06:20:01;19.77;;;7.80;;
65936;SDS011;52707;52.086;5.418;2023-04-07T06:22:27;22.63;;;6.75;;
65936;SDS011;52707;52.086;5.418;2023-04-07T06:24:54;25.30;;;7.43;;
65936;SDS011;52707;52.086;5.418;2023-04-07T06:27:20;24.88;;;6.85;;
65936;SDS011;52707;52.086;5.418;2023-04-07T06:29:47;17.42;;;6.53;;
65936;SDS011;52707;52.086;5.418;2023-04-07T06:32:13;16.60;;;6.20;;
65936;SDS011;52707;52.086;5.418;2023-04-07T06:34:39;16.17;;;6.22;;
65936;SDS011;52707;52.086;5.418;2023-04-07T06:37:05;16.88;;;6.63;;
65936;SDS011;52707;52.086;5.418;2023-04-07T06:39:33;17.00;;;6.05;;
65936;SDS011;52707;52.086;5.418;2023-04-07T06:41:59;21.05;;;6.10;;
65936;SDS011;52707;52.086;5.418;2023-04-07T06:44:26;20.25;;;7.07;;
65936;SDS011;52707;52.086;5.418;2023-04-07T06:46:53;20.13;;;7.93;;
65936;SDS011;52707;52.086;5.418;2023-04-07T06:49:20;21.75;;;7.25;;
65936;SDS011;52707;52.086;5.418;2023-04-07T06:51:47;19.58;;;7.10;;
65936;SDS011;52707;52.086;5.418;2023-04-07T06:54:13;15.75;;;7.25;;
65936;SDS011;52707;52.086;5.418;2023-04-07T06:56:40;20.25;;;7.57;;
65936;SDS011;52707;52.086;5.418;2023-04-07T06:59:07;24.05;;;8.18;;
65936;SDS011;52707;52.086;5.418;2023-04-07T07:01:33;18.63;;;8.00;;
65936;SDS011;52707;52.086;5.418;2023-04-07T07:04:00;28.75;;;8.95;;
65936;SDS011;52707;52.086;5.418;2023-04-07T07:06:26;21.75;;;8.60;;
65936;SDS011;52707;52.086;5.418;2023-04-07T07:08:53;18.10;;;7.57;;
65936;SDS011;52707;52.086;5.418;2023-04-07T07:11:19;21.17;;;7.78;;
65936;SDS011;52707;52.086;5.418;2023-04-07T07:13:45;26.42;;;8.65;;
65936;SDS011;52707;52.086;5.418;2023-04-07T07:16:13;22.67;;;7.30;;
65936;SDS011;52707;52.086;5.418;2023-04-07T07:18:39;21.23;;;8.07;;
65936;SDS011;52707;52.086;5.418;2023-04-07T07:21:06;19.25;;;7.20;;
65936;SDS011;52707;52.086;5.418;2023-04-07T07:23:33;19.15;;;7.50;;
65936;SDS011;52707;52.086;5.418;2023-04-07T07:25:59;22.13;;;7.50;;
65936;SDS011;52707;52.086;5.418;2023-04-07T07:28:26;17.65;;;6.50;;
65936;SDS011;52707;52.086;5.418;2023-04-07T07:30:54;21.40;;;7.53;;
65936;SDS011;52707;52.086;5.418;2023-04-07T07:33:20;19.88;;;6.65;;
65936;SDS011;52707;52.086;5.418;2023-04-07T07:35:48;18.40;;;6.70;;
65936;SDS011;52707;52.086;5.418;2023-04-07T07:38:14;20.98;;;6.68;;
65936;SDS011;52707;52.086;5.418;2023-04-07T07:40:40;15.65;;;6.15;;
65936;SDS011;52707;52.086;5.418;2023-04-07T07:43:07;20.23;;;6.45;;
65936;SDS011;52707;52.086;5.418;2023-04-07T07:45:33;18.45;;;6.30;;
65936;SDS011;52707;52.086;5.418;2023-04-07T07:47:59;22.25;;;7.50;;
65936;SDS011;52707;52.086;5.418;2023-04-07T07:50:26;23.83;;;7.07;;
65936;SDS011;52707;52.086;5.418;2023-04-07T07:52:52;17.77;;;6.13;;
65936;SDS011;52707;52.086;5.418;2023-04-07T07:55:19;11.15;;;6.28;;
65936;SDS011;52707;52.086;5.418;2023-04-07T07:57:45;31.17;;;6.80;;
65936;SDS011;52707;52.086;5.418;2023-04-07T08:00:12;19.80;;;6.65;;
65936;SDS011;52707;52.086;5.418;2023-04-07T08:02:38;15.80;;;6.80;;
65936;SDS011;52707;52.086;5.418;2023-04-07T08:05:05;17.77;;;5.50;;
65936;SDS011;52707;52.086;5.418;2023-04-07T08:07:32;22.50;;;5.88;;
65936;SDS011;52707;52.086;5.418;2023-04-07T08:09:58;19.90;;;5.80;;
65936;SDS011;52707;52.086;5.418;2023-04-07T08:12:25;16.95;;;5.28;;
65936;SDS011;52707;52.086;5.418;2023-04-07T08:14:51;17.70;;;4.85;;
65936;SDS011;52707;52.086;5.418;2023-04-07T08:17:17;16.55;;;5.05;;
65936;SDS011;52707;52.086;5.418;2023-04-07T08:19:44;17.42;;;5.10;;
65936;SDS011;52707;52.086;5.418;2023-04-07T08:22:10;21.42;;;5.88;;
65936;SDS011;52707;52.086;5.418;2023-04-07T08:24:37;17.38;;;5.05;;
65936;SDS011;52707;52.086;5.418;2023-04-07T08:27:03;19.98;;;5.13;;
65936;SDS011;52707;52.086;5.418;2023-04-07T08:29:30;12.35;;;4.72;;
65936;SDS011;52707;52.086;5.418;2023-04-07T08:31:57;18.85;;;3.75;;
65936;SDS011;52707;52.086;5.418;2023-04-07T08:34:23;16.70;;;4.63;;
65936;SDS011;52707;52.086;5.418;2023-04-07T08:36:50;13.35;;;3.40;;
65936;SDS011;52707;52.086;5.418;2023-04-07T08:39:16;18.40;;;4.32;;
65936;SDS011;52707;52.086;5.418;2023-04-07T08:41:43;11.95;;;3.30;;
65936;SDS011;52707;52.086;5.418;2023-04-07T08:44:10;13.68;;;3.20;;
65936;SDS011;52707;52.086;5.418;2023-04-07T08:46:37;13.50;;;3.22;;
65936;SDS011;52707;52.086;5.418;2023-04-07T08:49:05;9.55;;;3.90;;
65936;SDS011;52707;52.086;5.418;2023-04-07T08:51:33;13.27;;;4.38;;
65936;SDS011;52707;52.086;5.418;2023-04-07T08:54:10;17.38;;;3.45;;
65936;SDS011;52707;52.086;5.418;2023-04-07T08:56:37;22.65;;;2.80;;
65936;SDS011;52707;52.086;5.418;2023-04-07T08:59:06;14.70;;;3.35;;
65936;SDS011;52707;52.086;5.418;2023-04-07T09:01:33;17.13;;;3.05;;
65936;SDS011;52707;52.086;5.418;2023-04-07T09:04:00;21.65;;;3.45;;
65936;SDS011;52707;52.086;5.418;2023-04-07T09:06:31;13.63;;;3.33;;
65936;SDS011;52707;52.086;5.418;2023-04-07T09:08:57;18.45;;;4.20;;
65936;SDS011;52707;52.086;5.418;2023-04-07T09:11:25;23.75;;;4.38;;
65936;SDS011;52707;52.086;5.418;2023-04-07T09:13:51;19.38;;;3.92;;
65936;SDS011;52707;52.086;5.418;2023-04-07T09:16:18;17.38;;;3.50;;
65936;SDS011;52707;52.086;5.418;2023-04-07T09:18:44;13.80;;;3.47;;
65936;SDS011;52707;52.086;5.418;2023-04-07T09:21:10;13.70;;;3.85;;
65936;SDS011;52707;52.086;5.418;2023-04-07T09:23:40;7.10;;;2.70;;
65936;SDS011;52707;52.086;5.418;2023-04-07T09:26:20;12.18;;;3.25;;
65936;SDS011;52707;52.086;5.418;2023-04-07T09:28:51;18.85;;;3.67;;
65936;SDS011;52707;52.086;5.418;2023-04-07T09:31:18;18.77;;;3.78;;
65936;SDS011;52707;52.086;5.418;2023-04-07T09:33:47;17.13;;;3.05;;
65936;SDS011;52707;52.086;5.418;2023-04-07T09:36:13;15.05;;;3.45;;
65936;SDS011;52707;52.086;5.418;2023-04-07T09:38:40;12.60;;;2.97;;
65936;SDS011;52707;52.086;5.418;2023-04-07T09:43:37;15.23;;;4.10;;
65936;SDS011;52707;52.086;5.418;2023-04-07T09:46:07;9.05;;;2.83;;
65936;SDS011;52707;52.086;5.418;2023-04-07T09:48:33;10.37;;;2.57;;
65936;SDS011;52707;52.086;5.418;2023-04-07T09:56:16;14.27;;;2.40;;
65936;SDS011;52707;52.086;5.418;2023-04-07T09:58:44;14.25;;;2.58;;
65936;SDS011;52707;52.086;5.418;2023-04-07T10:01:11;8.90;;;2.63;;
65936;SDS011;52707;52.086;5.418;2023-04-07T10:03:38;6.55;;;2.30;;
65936;SDS011;52707;52.086;5.418;2023-04-07T10:06:05;8.10;;;2.20;;
65936;SDS011;52707;52.086;5.418;2023-04-07T10:08:32;10.20;;;3.95;;
65936;SDS011;52707;52.086;5.418;2023-04-07T10:11:02;8.18;;;2.67;;
65936;SDS011;52707;52.086;5.418;2023-04-07T10:13:29;12.10;;;2.42;;
65936;SDS011;52707;52.086;5.418;2023-04-07T10:15:59;22.65;;;7.57;;
65936;SDS011;52707;52.086;5.418;2023-04-07T10:18:28;6.57;;;2.50;;
65936;SDS011;52707;52.086;5.418;2023-04-07T10:20:59;8.32;;;2.50;;
65936;SDS011;52707;52.086;5.418;2023-04-07T10:25:59;16.13;;;2.60;;
65936;SDS011;52707;52.086;5.418;2023-04-07T10:28:26;11.85;;;3.17;;
65936;SDS011;52707;52.086;5.418;2023-04-07T10:30:53;10.77;;;2.35;;
65936;SDS011;52707;52.086;5.418;2023-04-07T10:36:05;11.70;;;2.38;;
65936;SDS011;52707;52.086;5.418;2023-04-07T10:38:32;7.35;;;2.55;;
65936;SDS011;52707;52.086;5.418;2023-04-07T10:40:58;12.82;;;2.25;;
65936;SDS011;52707;52.086;5.418;2023-04-07T10:43:37;9.68;;;2.38;;
65936;SDS011;52707;52.086;5.418;2023-04-07T10:46:09;7.88;;;2.58;;
65936;SDS011;52707;52.086;5.418;2023-04-07T10:48:35;6.25;;;2.08;;
65936;SDS011;52707;52.086;5.418;2023-04-07T10:53:32;12.38;;;2.53;;
65936;SDS011;52707;52.086;5.418;2023-04-07T10:56:02;7.33;;;2.63;;
65936;SDS011;52707;52.086;5.418;2023-04-07T10:58:28;16.17;;;5.03;;
65936;SDS011;52707;52.086;5.418;2023-04-07T11:03:23;17.77;;;3.55;;
65936;SDS011;52707;52.086;5.418;2023-04-07T11:05:49;13.90;;;3.08;;
65936;SDS011;52707;52.086;5.418;2023-04-07T11:08:35;18.15;;;3.03;;
65936;SDS011;52707;52.086;5.418;2023-04-07T11:11:01;12.07;;;3.03;;
65936;SDS011;52707;52.086;5.418;2023-04-07T11:13:28;13.30;;;3.25;;
65936;SDS011;52707;52.086;5.418;2023-04-07T11:16:04;17.33;;;3.03;;
65936;SDS011;52707;52.086;5.418;2023-04-07T11:18:31;14.50;;;2.80;;
65936;SDS011;52707;52.086;5.418;2023-04-07T11:20:57;13.55;;;2.63;;
65936;SDS011;52707;52.086;5.418;2023-04-07T11:23:24;18.10;;;3.28;;
65936;SDS011;52707;52.086;5.418;2023-04-07T11:25:53;11.00;;;2.90;;
65936;SDS011;52707;52.086;5.418;2023-04-07T11:28:24;26.52;;;4.28;;
65936;SDS011;52707;52.086;5.418;2023-04-07T11:30:51;11.65;;;3.53;;
65936;SDS011;52707;52.086;5.418;2023-04-07T11:33:19;11.43;;;3.13;;
65936;SDS011;52707;52.086;5.418;2023-04-07T11:35:47;14.43;;;3.80;;
65936;SDS011;52707;52.086;5.418;2023-04-07T11:38:13;12.02;;;3.67;;
65936;SDS011;52707;52.086;5.418;2023-04-07T11:40:41;22.83;;;4.25;;
65936;SDS011;52707;52.086;5.418;2023-04-07T11:43:26;18.08;;;3.80;;
65936;SDS011;52707;52.086;5.418;2023-04-07T11:46:03;11.68;;;4.03;;
65936;SDS011;52707;52.086;5.418;2023-04-07T11:48:30;16.05;;;4.03;;
65936;SDS011;52707;52.086;5.418;2023-04-07T11:50:57;13.48;;;3.63;;
65936;SDS011;52707;52.086;5.418;2023-04-07T11:56:02;15.15;;;4.15;;
65936;SDS011;52707;52.086;5.418;2023-04-07T11:58:28;18.90;;;4.25;;
65936;SDS011;52707;52.086;5.418;2023-04-07T12:00:58;12.77;;;3.85;;
65936;SDS011;52707;52.086;5.418;2023-04-07T12:03:28;10.82;;;3.67;;
65936;SDS011;52707;52.086;5.418;2023-04-07T12:05:55;10.30;;;3.50;;
65936;SDS011;52707;52.086;5.418;2023-04-07T12:08:29;15.63;;;3.58;;
65936;SDS011;52707;52.086;5.418;2023-04-07T12:11:02;17.75;;;4.20;;
65936;SDS011;52707;52.086;5.418;2023-04-07T12:13:29;15.43;;;3.65;;
65936;SDS011;52707;52.086;5.418;2023-04-07T12:15:59;16.73;;;4.07;;
65936;SDS011;52707;52.086;5.418;2023-04-07T12:18:26;17.40;;;3.90;;
65936;SDS011;52707;52.086;5.418;2023-04-07T12:20:53;14.55;;;4.03;;
65936;SDS011;52707;52.086;5.418;2023-04-07T12:23:20;14.50;;;3.90;;
65936;SDS011;52707;52.086;5.418;2023-04-07T12:25:47;13.90;;;3.10;;
65936;SDS011;52707;52.086;5.418;2023-04-07T12:28:13;13.38;;;4.00;;
65936;SDS011;52707;52.086;5.418;2023-04-07T12:30:40;13.45;;;3.08;;
65936;SDS011;52707;52.086;5.418;2023-04-07T12:33:07;11.65;;;2.78;;
65936;SDS011;52707;52.086;5.418;2023-04-07T12:35:33;12.13;;;3.13;;
65936;SDS011;52707;52.086;5.418;2023-04-07T12:38:00;9.70;;;3.03;;
65936;SDS011;52707;52.086;5.418;2023-04-07T12:40:26;12.77;;;3.08;;
65936;SDS011;52707;52.086;5.418;2023-04-07T12:42:54;8.27;;;2.47;;
65936;SDS011;52707;52.086;5.418;2023-04-07T12:45:23;7.43;;;2.42;;
65936;SDS011;52707;52.086;5.418;2023-04-07T12:47:49;10.52;;;2.15;;
65936;SDS011;52707;52.086;5.418;2023-04-07T12:50:16;10.52;;;2.00;;
65936;SDS011;52707;52.086;5.418;2023-04-07T12:52:42;7.72;;;2.45;;
65936;SDS011;52707;52.086;5.418;2023-04-07T12:55:09;7.45;;;1.80;;
65936;SDS011;52707;52.086;5.418;2023-04-07T12:57:36;9.43;;;1.98;;
65936;SDS011;52707;52.086;5.418;2023-04-07T13:00:02;6.43;;;1.83;;
65936;SDS011;52707;52.086;5.418;2023-04-07T13:02:29;9.52;;;2.47;;
65936;SDS011;52707;52.086;5.418;2023-04-07T13:04:56;10.57;;;2.10;;
65936;SDS011;52707;52.086;5.418;2023-04-07T13:07:22;11.07;;;2.55;;
65936;SDS011;52707;52.086;5.418;2023-04-07T13:09:48;9.85;;;2.40;;
65936;SDS011;52707;52.086;5.418;2023-04-07T13:12:15;4.35;;;1.65;;
65936;SDS011;52707;52.086;5.418;2023-04-07T13:14:41;8.93;;;2.53;;
65936;SDS011;52707;52.086;5.418;2023-04-07T13:17:22;10.23;;;2.42;;
65936;SDS011;52707;52.086;5.418;2023-04-07T13:19:48;8.45;;;2.90;;
65936;SDS011;52707;52.086;5.418;2023-04-07T13:22:15;9.63;;;2.53;;
65936;SDS011;52707;52.086;5.418;2023-04-07T13:24:47;13.32;;;2.55;;
65936;SDS011;52707;52.086;5.418;2023-04-07T13:27:13;12.93;;;3.25;;
65936;SDS011;52707;52.086;5.418;2023-04-07T13:29:39;9.35;;;2.95;;
65936;SDS011;52707;52.086;5.418;2023-04-07T13:32:06;10.35;;;3.47;;
65936;SDS011;52707;52.086;5.418;2023-04-07T13:34:33;5.10;;;2.63;;
65936;SDS011;52707;52.086;5.418;2023-04-07T13:37:00;8.90;;;3.00;;
65936;SDS011;52707;52.086;5.418;2023-04-07T13:39:27;10.43;;;3.00;;
65936;SDS011;52707;52.086;5.418;2023-04-07T13:41:54;15.43;;;4.18;;
65936;SDS011;52707;52.086;5.418;2023-04-07T13:44:21;5.68;;;2.90;;
65936;SDS011;52707;52.086;5.418;2023-04-07T13:46:47;11.15;;;3.50;;
65936;SDS011;52707;52.086;5.418;2023-04-07T13:49:14;13.80;;;3.70;;
65936;SDS011;52707;52.086;5.418;2023-04-07T13:51:40;14.40;;;4.22;;
65936;SDS011;52707;52.086;5.418;2023-04-07T13:54:07;20.35;;;4.10;;
65936;SDS011;52707;52.086;5.418;2023-04-07T13:56:33;14.20;;;3.13;;
65936;SDS011;52707;52.086;5.418;2023-04-07T13:59:05;16.00;;;4.25;;
65936;SDS011;52707;52.086;5.418;2023-04-07T14:01:32;13.20;;;3.47;;
65936;SDS011;52707;52.086;5.418;2023-04-07T14:03:59;16.50;;;3.55;;
65936;SDS011;52707;52.086;5.418;2023-04-07T14:06:26;10.40;;;3.92;;
65936;SDS011;52707;52.086;5.418;2023-04-07T14:08:52;8.63;;;3.65;;
65936;SDS011;52707;52.086;5.418;2023-04-07T14:11:19;14.32;;;3.75;;
65936;SDS011;52707;52.086;5.418;2023-04-07T14:13:47;12.27;;;3.60;;
65936;SDS011;52707;52.086;5.418;2023-04-07T14:16:15;9.48;;;3.03;;
65936;SDS011;52707;52.086;5.418;2023-04-07T14:18:42;11.43;;;3.03;;
65936;SDS011;52707;52.086;5.418;2023-04-07T14:21:08;8.40;;;2.92;;
65936;SDS011;52707;52.086;5.418;2023-04-07T14:23:35;16.08;;;3.55;;
65936;SDS011;52707;52.086;5.418;2023-04-07T14:26:03;17.33;;;3.03;;
65936;SDS011;52707;52.086;5.418;2023-04-07T14:28:29;11.88;;;2.47;;
65936;SDS011;52707;52.086;5.418;2023-04-07T14:30:55;11.82;;;3.17;;
65936;SDS011;52707;52.086;5.418;2023-04-07T14:33:22;17.27;;;3.22;;
65936;SDS011;52707;52.086;5.418;2023-04-07T14:35:48;19.70;;;3.05;;
65936;SDS011;52707;52.086;5.418;2023-04-07T14:38:14;15.27;;;2.75;;
65936;SDS011;52707;52.086;5.418;2023-04-07T14:40:41;8.70;;;2.70;;
65936;SDS011;52707;52.086;5.418;2023-04-07T14:43:07;7.28;;;2.70;;
65936;SDS011;52707;52.086;5.418;2023-04-07T14:45:36;14.48;;;3.72;;
65936;SDS011;52707;52.086;5.418;2023-04-07T14:48:04;6.00;;;3.58;;
65936;SDS011;52707;52.086;5.418;2023-04-07T14:50:31;10.68;;;3.97;;
65936;SDS011;52707;52.086;5.418;2023-04-07T14:52:57;11.15;;;4.25;;
65936;SDS011;52707;52.086;5.418;2023-04-07T14:55:24;12.48;;;4.40;;
65936;SDS011;52707;52.086;5.418;2023-04-07T14:57:50;8.68;;;3.97;;
65936;SDS011;52707;52.086;5.418;2023-04-07T15:00:17;11.80;;;4.45;;